createdAt,value
2018-12-14T00:01:41.661Z,73.70
2018-12-14T00:04:13.880Z,75.12
2018-12-14T00:06:46.112Z,74.65
2018-12-14T00:09:16.358Z,74.82
2018-12-14T00:11:47.880Z,75.79
2018-12-14T00:14:21.624Z,74.56
2018-12-14T00:16:51.813Z,73.88
2018-12-14T00:19:23.277Z,73.87
2018-12-14T00:21:53.476Z,72.92
2018-12-14T00:24:25.082Z,72.99
2018-12-14T00:26:55.598Z,74.80
2018-12-14T00:29:25.766Z,75.38
2018-12-14T00:31:55.986Z,74.67
2018-12-14T00:34:26.205Z,74.53
2018-12-14T00:36:56.398Z,75.42
2018-12-14T00:39:26.614Z,74.56
2018-12-14T00:41:56.811Z,75.00
2018-12-14T00:44:27.000Z,75.87
2018-12-14T00:46:57.199Z,76.80
2018-12-14T00:49:27.546Z,75.45
2018-12-14T00:51:57.738Z,74.72
2018-12-14T00:54:28.004Z,75.44
2018-12-14T00:56:58.234Z,74.39
2018-12-14T00:59:28.428Z,73.98
2018-12-14T01:01:58.622Z,74.12
2018-12-14T01:04:28.860Z,74.98
2018-12-14T01:06:59.110Z,75.21
2018-12-14T01:09:29.298Z,75.27
2018-12-14T01:11:59.480Z,76.24
2018-12-14T01:14:30.540Z,75.24
2018-12-14T01:17:00.718Z,74.76
2018-12-14T01:19:30.888Z,76.73
2018-12-14T01:22:01.218Z,75.52
2018-12-14T01:24:31.404Z,75.24
2018-12-14T01:27:01.682Z,74.61
2018-12-14T01:29:31.856Z,77.77
2018-12-14T01:32:02.041Z,75.71
2018-12-14T01:34:32.258Z,75.63
2018-12-14T01:37:02.546Z,75.97
2018-12-14T01:39:33.039Z,75.82
2018-12-14T01:42:05.040Z,76.91
2018-12-14T01:44:35.359Z,76.83
2018-12-14T01:47:05.495Z,77.56
2018-12-14T01:49:35.738Z,78.54
2018-12-14T01:52:07.059Z,77.93
2018-12-14T01:54:37.404Z,76.21
2018-12-14T01:57:07.614Z,76.46
2018-12-14T01:59:37.884Z,77.78
2018-12-14T02:02:08.094Z,77.55
2018-12-14T02:04:38.246Z,78.87
2018-12-14T02:07:08.418Z,79.05
2018-12-14T02:09:39.114Z,78.84
2018-12-14T02:12:11.389Z,78.37
2018-12-14T02:14:41.606Z,78.98
2018-12-14T02:17:11.746Z,78.18
2018-12-14T02:19:42.071Z,76.34
2018-12-14T02:22:12.266Z,77.51
2018-12-14T02:24:42.514Z,77.37
2018-12-14T02:27:12.739Z,77.74
2018-12-14T02:29:43.014Z,77.06
2018-12-14T02:32:13.351Z,77.70
2018-12-14T02:34:43.766Z,78.12
2018-12-14T02:37:14.002Z,77.85
2018-12-14T02:39:44.239Z,78.77
2018-12-14T02:42:19.325Z,78.51
2018-12-14T02:44:46.560Z,78.40
2018-12-14T02:47:17.974Z,77.39
2018-12-14T02:49:48.214Z,77.39
2018-12-14T02:52:18.392Z,78.64
2018-12-14T02:54:48.772Z,77.21
2018-12-14T02:57:18.961Z,75.50
2018-12-14T02:59:49.290Z,77.97
2018-12-14T03:02:20.051Z,79.97
2018-12-14T03:04:50.325Z,78.77
2018-12-14T03:07:20.487Z,78.25
2018-12-14T03:09:50.682Z,77.69
2018-12-14T03:12:26.680Z,78.37
2018-12-14T03:14:53.110Z,79.33
2018-12-14T03:17:24.579Z,78.57
2018-12-14T03:19:55.354Z,78.52
2018-12-14T03:22:25.785Z,77.77
2018-12-14T03:24:55.975Z,76.61
2018-12-14T03:27:26.115Z,76.79
2018-12-14T03:29:56.322Z,76.83
2018-12-14T03:32:26.576Z,76.27
2018-12-14T03:34:56.780Z,77.34
2018-12-14T03:37:27.235Z,77.22
2018-12-14T03:39:57.439Z,76.70
2018-12-14T03:42:33.904Z,76.89
2018-12-14T03:44:59.948Z,77.77
2018-12-14T03:47:30.140Z,78.31
2018-12-14T03:50:00.349Z,79.33
2018-12-14T03:52:30.550Z,77.54
2018-12-14T03:55:01.031Z,78.08
2018-12-14T03:57:31.335Z,79.07
2018-12-14T04:00:01.562Z,80.63
2018-12-14T04:02:32.186Z,79.73
2018-12-14T04:05:02.492Z,77.44
2018-12-14T04:07:32.666Z,76.88
2018-12-14T04:10:03.008Z,78.22
2018-12-14T04:12:33.190Z,79.78
2018-12-14T04:15:04.684Z,79.79
2018-12-14T04:17:34.870Z,79.50
2018-12-14T04:20:05.933Z,80.38
2018-12-14T04:22:36.261Z,80.71
2018-12-14T04:25:07.807Z,80.07
2018-12-14T04:27:38.018Z,80.09
2018-12-14T04:30:08.737Z,79.31
2018-12-14T04:32:38.901Z,79.41
2018-12-14T04:35:09.090Z,78.84
2018-12-14T04:37:39.265Z,78.49
2018-12-14T04:40:09.793Z,77.16
2018-12-14T04:42:48.684Z,77.68
2018-12-14T04:45:13.728Z,78.54
2018-12-14T04:47:43.888Z,78.39
2018-12-14T04:50:14.187Z,78.76
2018-12-14T04:52:44.434Z,79.92
2018-12-14T04:55:14.630Z,77.91
2018-12-14T04:57:44.811Z,79.39
2018-12-14T05:00:15.149Z,78.95
2018-12-14T05:02:45.298Z,79.94
2018-12-14T05:05:15.475Z,80.49
2018-12-14T05:07:45.650Z,80.89
2018-12-14T05:10:15.930Z,79.49
2018-12-14T05:12:47.509Z,79.38
2018-12-14T05:15:17.740Z,77.88
2018-12-14T05:17:48.427Z,77.10
2018-12-14T05:20:20.158Z,79.00
2018-12-14T05:22:50.310Z,79.49
2018-12-14T05:25:20.498Z,79.09
2018-12-14T05:27:50.685Z,78.75
2018-12-14T05:30:20.873Z,78.74
2018-12-14T05:32:51.057Z,79.32
2018-12-14T05:35:21.274Z,78.51
2018-12-14T05:37:51.452Z,79.65
2018-12-14T05:40:21.691Z,78.92
2018-12-14T05:42:51.907Z,79.04
2018-12-14T05:45:22.238Z,78.55
2018-12-14T05:47:52.484Z,79.03
2018-12-14T05:50:22.788Z,79.13
2018-12-14T05:52:52.951Z,78.99
2018-12-14T05:55:23.264Z,80.80
2018-12-14T05:57:53.446Z,81.06
2018-12-14T06:00:23.683Z,81.20
2018-12-14T06:02:53.856Z,80.49
2018-12-14T06:05:24.649Z,80.55
2018-12-14T06:07:54.820Z,79.77
2018-12-14T06:10:24.988Z,79.84
2018-12-14T06:12:55.140Z,80.09
2018-12-14T06:15:26.296Z,79.14
2018-12-14T06:17:56.502Z,80.29
2018-12-14T06:20:26.666Z,79.37
2018-12-14T06:22:57.062Z,80.12
2018-12-14T06:25:27.417Z,80.25
2018-12-14T06:27:57.532Z,80.28
2018-12-14T06:30:27.759Z,79.64
2018-12-14T06:32:57.994Z,79.77
2018-12-14T06:35:28.260Z,78.98
2018-12-14T06:37:58.464Z,79.59
2018-12-14T06:40:28.937Z,79.20
2018-12-14T06:42:59.141Z,79.28
2018-12-14T06:45:30.149Z,79.17
2018-12-14T06:48:00.351Z,78.54
2018-12-14T06:50:31.729Z,80.05
2018-12-14T06:53:02.364Z,78.84
2018-12-14T06:55:32.655Z,79.56
2018-12-14T06:58:02.805Z,79.21
2018-12-14T07:00:33.273Z,78.46
2018-12-14T07:03:03.526Z,78.47
2018-12-14T07:05:33.765Z,79.19
2018-12-14T07:08:04.511Z,79.79
2018-12-14T07:10:34.702Z,80.14
2018-12-14T07:13:04.952Z,79.30
2018-12-14T07:15:35.279Z,78.60
2018-12-14T07:18:05.586Z,78.65
2018-12-14T07:20:37.459Z,80.82
2018-12-14T07:23:07.719Z,77.56
2018-12-14T07:25:38.104Z,79.33
2018-12-14T07:28:08.377Z,78.12
2018-12-14T07:30:38.630Z,78.36
2018-12-14T07:33:08.792Z,78.01
2018-12-14T07:35:41.843Z,77.80
2018-12-14T07:38:11.132Z,78.85
2018-12-14T07:40:41.355Z,77.30
2018-12-14T07:43:11.623Z,76.53
2018-12-14T07:45:42.155Z,77.63
2018-12-14T07:48:12.562Z,77.35
2018-12-14T07:50:43.597Z,76.91
2018-12-14T07:53:14.659Z,76.52
2018-12-14T07:55:44.889Z,76.09
2018-12-14T07:58:15.875Z,77.65
2018-12-14T08:00:46.064Z,79.44
2018-12-14T08:03:16.418Z,77.36
2018-12-14T08:05:47.766Z,77.96
2018-12-14T08:08:18.070Z,79.29
2018-12-14T08:10:48.273Z,77.36
2018-12-14T08:13:19.483Z,76.35
2018-12-14T08:15:49.909Z,75.91
2018-12-14T08:18:20.130Z,77.38
2018-12-14T08:20:50.471Z,75.86
2018-12-14T08:23:20.704Z,77.92
2018-12-14T08:25:51.028Z,76.37
2018-12-14T08:28:21.165Z,75.88
2018-12-14T08:30:51.410Z,73.76
2018-12-14T08:33:21.702Z,76.47
2018-12-14T08:35:53.010Z,76.23
2018-12-14T08:38:23.198Z,74.84
2018-12-14T08:40:53.446Z,75.62
2018-12-14T08:43:23.751Z,75.96
2018-12-14T08:45:55.562Z,74.76
2018-12-14T08:48:25.779Z,74.67
2018-12-14T08:50:55.972Z,75.00
2018-12-14T08:53:26.515Z,76.22
2018-12-14T08:55:56.854Z,77.26
2018-12-14T08:58:28.251Z,74.62
2018-12-14T09:00:58.473Z,75.68
2018-12-14T09:03:28.659Z,75.80
2018-12-14T09:05:58.900Z,76.42
2018-12-14T09:08:29.076Z,76.61
2018-12-14T09:10:59.658Z,75.76
2018-12-14T09:13:30.040Z,75.57
2018-12-14T09:16:00.468Z,75.21
2018-12-14T09:18:30.766Z,75.65
2018-12-14T09:21:01.298Z,75.71
2018-12-14T09:23:31.751Z,75.60
2018-12-14T09:26:02.093Z,75.65
2018-12-14T09:28:32.798Z,75.12
2018-12-14T09:31:03.005Z,74.27
2018-12-14T09:33:33.289Z,74.26
2018-12-14T09:36:03.708Z,75.51
2018-12-14T09:38:34.094Z,73.75
2018-12-14T09:41:04.344Z,74.35
2018-12-14T09:43:34.704Z,74.33
2018-12-14T09:46:05.234Z,73.69
2018-12-14T09:48:36.541Z,75.33
2018-12-14T09:51:12.263Z,76.32
2018-12-14T09:53:39.211Z,75.55
2018-12-14T09:56:09.413Z,75.12
2018-12-14T09:58:39.706Z,76.59
2018-12-14T10:01:09.967Z,76.75
2018-12-14T10:03:40.605Z,77.54
2018-12-14T10:06:15.626Z,77.80
2018-12-14T10:08:43.052Z,77.46
2018-12-14T10:11:14.820Z,78.12
2018-12-14T10:13:45.273Z,78.47
2018-12-14T10:16:15.599Z,78.10
2018-12-14T10:18:45.869Z,78.33
2018-12-14T10:21:16.256Z,77.60
2018-12-14T10:23:46.568Z,77.04
2018-12-14T10:26:16.897Z,77.49
2018-12-14T10:28:47.169Z,76.97
2018-12-14T10:31:17.736Z,76.35
2018-12-14T10:33:47.989Z,76.22
2018-12-14T10:36:18.739Z,75.88
2018-12-14T10:38:49.049Z,77.46
2018-12-14T10:41:20.377Z,76.89
2018-12-14T10:43:50.668Z,76.21
2018-12-14T10:46:20.954Z,77.66
2018-12-14T10:48:51.213Z,75.81
2018-12-14T10:51:21.520Z,76.02
2018-12-14T10:53:51.840Z,77.73
2018-12-14T10:56:22.021Z,76.59
2018-12-14T10:58:52.360Z,76.47
2018-12-14T11:01:27.866Z,78.12
2018-12-14T11:03:58.266Z,76.43
2018-12-14T11:06:28.490Z,77.05
2018-12-14T11:08:58.834Z,77.51
2018-12-14T11:11:29.152Z,76.92
2018-12-14T11:13:59.437Z,76.15
2018-12-14T11:16:29.764Z,75.94
2018-12-14T11:19:00.237Z,75.52
2018-12-14T11:21:30.487Z,76.51
2018-12-14T11:24:00.704Z,75.96
2018-12-14T11:26:31.284Z,74.90
2018-12-14T11:29:01.473Z,76.27
2018-12-14T11:31:32.861Z,72.88
2018-12-14T11:34:03.196Z,73.93
2018-12-14T11:36:34.482Z,75.26
2018-12-14T11:39:06.305Z,74.95
2018-12-14T11:41:38.592Z,75.53
2018-12-14T11:44:08.826Z,74.32
2018-12-14T11:46:39.050Z,74.93
2018-12-14T11:49:09.210Z,75.26
2018-12-14T11:51:39.457Z,75.98
2018-12-14T11:54:09.720Z,75.39
2018-12-14T11:56:39.909Z,74.33
2018-12-14T11:59:10.103Z,75.20
2018-12-14T12:01:40.943Z,75.20
2018-12-14T12:04:11.152Z,74.92
2018-12-14T12:06:41.357Z,75.10
2018-12-14T12:09:13.087Z,76.08
2018-12-14T12:11:44.330Z,72.95
2018-12-14T12:14:15.146Z,74.01
2018-12-14T12:16:45.733Z,73.59
2018-12-14T12:19:16.040Z,73.74
2018-12-14T12:21:46.503Z,76.63
2018-12-14T12:24:16.782Z,75.11
2018-12-14T12:26:47.093Z,75.08
2018-12-14T12:29:17.346Z,76.03
2018-12-14T12:31:48.467Z,76.42
2018-12-14T12:34:18.741Z,75.92
2018-12-14T12:36:49.059Z,75.81
2018-12-14T12:39:19.340Z,75.79
2018-12-14T12:41:49.522Z,75.12
2018-12-14T12:44:20.438Z,75.29
2018-12-14T12:46:50.672Z,75.99
2018-12-14T12:49:21.665Z,76.66
2018-12-14T12:51:52.392Z,74.59
2018-12-14T12:54:22.542Z,75.59
2018-12-14T12:56:52.777Z,75.72
2018-12-14T12:59:25.249Z,75.78
2018-12-14T13:01:55.581Z,75.70
2018-12-14T13:04:25.757Z,75.50
2018-12-14T13:06:56.171Z,75.11
2018-12-14T13:09:27.436Z,74.38
2018-12-14T13:11:57.712Z,73.53
2018-12-14T13:14:27.896Z,74.10
2018-12-14T13:16:58.550Z,74.17
2018-12-14T13:19:28.777Z,76.52
2018-12-14T13:21:59.057Z,73.57
2018-12-14T13:24:29.264Z,74.16
2018-12-14T13:26:59.804Z,74.67
2018-12-14T13:29:30.046Z,75.64
2018-12-14T13:32:00.279Z,74.55
2018-12-14T13:34:30.494Z,74.51
2018-12-14T13:37:00.930Z,75.08
2018-12-14T13:39:31.360Z,75.68
2018-12-14T13:42:01.684Z,73.17
2018-12-14T13:44:32.664Z,74.11
2018-12-14T13:47:02.909Z,74.40
2018-12-14T13:49:33.505Z,74.30
2018-12-14T13:52:03.710Z,73.15
2018-12-14T13:54:33.965Z,73.50
2018-12-14T13:57:04.262Z,73.04
2018-12-14T13:59:34.699Z,71.80
2018-12-14T14:02:06.396Z,73.12
2018-12-14T14:04:36.610Z,72.58
2018-12-14T14:07:06.912Z,74.38
2018-12-14T14:09:37.245Z,74.28
2018-12-14T14:12:07.477Z,73.08
2018-12-14T14:14:37.662Z,73.62
2018-12-14T14:17:07.905Z,72.93
2018-12-14T14:19:38.580Z,74.34
2018-12-14T14:22:08.932Z,74.95
2018-12-14T14:24:39.135Z,74.15
2018-12-14T14:27:09.457Z,73.30
2018-12-14T14:29:40.321Z,73.11
2018-12-14T14:34:53.798Z,74.64
2018-12-14T14:37:24.112Z,74.79
2018-12-14T14:39:55.884Z,74.54
2018-12-14T14:42:26.353Z,73.85
2018-12-14T14:44:59.866Z,74.01
2018-12-14T14:47:29.346Z,75.22
2018-12-14T14:49:59.654Z,73.96
2018-12-14T14:52:30.696Z,73.32
2018-12-14T14:55:02.080Z,72.76
2018-12-14T14:57:33.083Z,74.19
2018-12-14T15:00:03.699Z,74.44
2018-12-14T15:02:33.933Z,73.05
2018-12-14T15:05:04.578Z,73.47
2018-12-14T15:07:34.796Z,74.37
2018-12-14T15:10:06.059Z,72.86
2018-12-14T15:12:36.459Z,73.30
2018-12-14T15:15:07.723Z,74.04
2018-12-14T15:17:38.145Z,73.54
2018-12-14T15:20:08.699Z,72.74
2018-12-14T15:22:38.915Z,72.70
2018-12-14T15:25:09.497Z,73.78
2018-12-14T15:27:39.959Z,72.84
2018-12-14T15:30:10.316Z,72.50
2018-12-14T15:32:40.535Z,72.69
2018-12-14T15:35:11.314Z,72.47
2018-12-14T15:37:41.515Z,72.46
2018-12-14T15:40:13.822Z,73.32
2018-12-14T15:42:44.175Z,72.54
2018-12-14T15:45:14.665Z,72.42
2018-12-14T15:47:44.940Z,71.65
2018-12-14T15:50:16.157Z,72.84
2018-12-14T15:52:56.539Z,74.14
2018-12-14T15:55:33.265Z,71.60
2018-12-14T16:01:01.354Z,72.83
2018-12-14T16:03:46.712Z,72.63
2018-12-14T16:06:18.371Z,71.73
2018-12-14T16:08:48.812Z,70.78
2018-12-14T16:11:19.023Z,70.52
2018-12-14T16:13:49.243Z,71.74
2018-12-14T16:16:19.691Z,70.72
2018-12-14T16:18:50.074Z,71.58
2018-12-14T16:21:20.393Z,70.20
2018-12-14T16:23:50.742Z,69.87
2018-12-14T16:26:21.307Z,71.78
2018-12-14T16:28:51.484Z,70.86
2018-12-14T16:31:21.701Z,71.88
2018-12-14T16:33:51.893Z,70.32
2018-12-14T16:36:22.093Z,70.65
2018-12-14T16:38:52.354Z,72.22
2018-12-14T16:41:22.663Z,72.19
2018-12-14T16:43:52.854Z,71.62
2018-12-14T16:46:23.078Z,70.62
2018-12-14T16:48:53.271Z,71.03
2018-12-14T16:51:23.462Z,71.30
2018-12-14T16:53:58.810Z,71.03
2018-12-14T16:56:29.279Z,72.94
2018-12-14T16:58:59.672Z,73.33
2018-12-14T17:01:30.114Z,73.29
2018-12-14T17:07:33.058Z,73.75
2018-12-14T17:10:03.490Z,73.26
2018-12-14T17:12:33.778Z,72.88
2018-12-14T17:15:04.098Z,74.00
2018-12-14T17:17:34.451Z,74.27
2018-12-14T17:20:05.253Z,74.78
2018-12-14T17:22:35.560Z,75.65
2018-12-14T17:25:07.580Z,75.19
2018-12-14T17:27:37.923Z,75.36
2018-12-14T17:30:09.440Z,74.03
2018-12-14T17:32:39.674Z,71.12
2018-12-14T17:35:09.978Z,72.16
2018-12-14T17:37:40.161Z,72.73
2018-12-14T17:40:10.378Z,72.29
2018-12-14T17:42:42.562Z,72.59
2018-12-14T17:45:12.746Z,72.81
2018-12-14T17:47:43.191Z,73.63
2018-12-14T17:50:13.512Z,75.03
2018-12-14T17:52:44.066Z,75.19
2018-12-14T17:55:14.380Z,75.62
2018-12-14T17:57:44.730Z,75.42
2018-12-14T18:00:15.202Z,76.00
2018-12-14T18:02:45.923Z,75.07
2018-12-14T18:05:16.149Z,75.45
2018-12-14T18:07:46.473Z,74.35
2018-12-14T18:10:16.719Z,76.12
2018-12-14T18:12:46.956Z,74.74
2018-12-14T18:15:17.191Z,75.88
2018-12-14T18:17:47.538Z,75.07
2018-12-14T18:20:18.178Z,75.84
2018-12-14T18:22:48.634Z,75.65
2018-12-14T18:25:19.461Z,75.98
2018-12-14T18:27:49.935Z,76.02
2018-12-14T18:30:20.971Z,76.15
2018-12-14T18:32:51.379Z,75.60
2018-12-14T18:35:21.781Z,74.33
2018-12-14T18:37:52.030Z,74.72
2018-12-14T18:40:22.284Z,74.86
2018-12-14T18:42:52.636Z,74.68
2018-12-14T18:45:22.904Z,75.89
2018-12-14T18:47:53.157Z,75.42
2018-12-14T18:50:23.338Z,75.44
2018-12-14T18:52:53.515Z,75.05
2018-12-14T18:55:23.716Z,75.39
2018-12-14T18:57:54.773Z,74.49
2018-12-14T19:00:25.054Z,74.93
2018-12-14T19:02:55.445Z,74.92
2018-12-14T19:05:25.766Z,74.52
2018-12-14T19:07:56.332Z,75.74
2018-12-14T19:10:26.614Z,76.52
2018-12-14T19:12:56.849Z,74.71
2018-12-14T19:15:27.234Z,76.37
2018-12-14T19:17:57.506Z,75.66
2018-12-14T19:20:27.683Z,75.19
2018-12-14T19:22:57.923Z,74.83
2018-12-14T19:25:28.201Z,74.29
2018-12-14T19:27:58.403Z,73.37
2018-12-14T19:30:28.630Z,75.70
2018-12-14T19:32:58.946Z,75.34
2018-12-14T19:35:29.130Z,75.21
2018-12-14T19:37:59.399Z,76.05
2018-12-14T19:40:29.596Z,76.13
2018-12-14T19:42:59.871Z,74.23
2018-12-14T19:45:30.233Z,75.45
2018-12-14T19:48:00.551Z,74.34
2018-12-14T19:50:30.889Z,74.83
2018-12-14T19:53:01.207Z,75.72
2018-12-14T19:55:31.510Z,76.43
2018-12-14T19:58:01.755Z,75.44
2018-12-14T20:00:31.940Z,75.43
2018-12-14T20:03:02.277Z,75.36
2018-12-14T20:05:32.545Z,74.80
2018-12-14T20:08:02.744Z,75.91
2018-12-14T20:10:33.013Z,75.98
2018-12-14T20:13:03.324Z,75.94
2018-12-14T20:15:33.576Z,75.33
2018-12-14T20:18:03.844Z,75.34
2018-12-14T20:20:34.105Z,76.26
2018-12-14T20:23:04.351Z,75.61
2018-12-14T20:25:34.710Z,75.26
2018-12-14T20:28:05.073Z,76.28
2018-12-14T20:30:35.341Z,76.32
2018-12-14T20:33:05.587Z,75.78
2018-12-14T20:35:36.136Z,76.09
2018-12-14T20:38:06.604Z,76.35
2018-12-14T20:40:36.830Z,76.09
2018-12-14T20:43:07.064Z,75.15
2018-12-14T20:45:37.328Z,75.88
2018-12-14T20:48:07.515Z,75.51
2018-12-14T20:50:37.739Z,74.79
2018-12-14T20:53:07.952Z,74.73
2018-12-14T20:55:38.229Z,75.06
2018-12-14T20:58:08.602Z,75.32
2018-12-14T21:00:38.856Z,75.31
2018-12-14T21:03:09.235Z,74.90
2018-12-14T21:05:39.420Z,75.35
2018-12-14T21:08:09.816Z,74.21
2018-12-14T21:10:40.121Z,74.63
2018-12-14T21:13:10.370Z,74.50
2018-12-14T21:15:40.566Z,75.30
2018-12-14T21:18:10.815Z,75.62
2018-12-14T21:20:40.998Z,75.24
2018-12-14T21:23:11.359Z,75.29
2018-12-14T21:25:42.594Z,74.96
2018-12-14T21:28:12.905Z,76.14
2018-12-14T21:30:43.120Z,74.41
2018-12-14T21:33:13.665Z,74.96
2018-12-14T21:35:44.605Z,74.75
2018-12-14T21:38:14.908Z,75.81
2018-12-14T21:40:45.167Z,75.01
2018-12-14T21:43:15.605Z,75.05
2018-12-14T21:45:45.795Z,74.96
2018-12-14T21:48:16.120Z,73.89
2018-12-14T21:50:46.363Z,73.90
2018-12-14T21:53:16.602Z,73.58
2018-12-14T21:55:46.771Z,73.34
2018-12-14T21:58:17.050Z,74.40
2018-12-14T22:00:47.248Z,73.74
2018-12-14T22:03:17.431Z,74.54
2018-12-14T22:05:47.623Z,74.94
2018-12-14T22:08:17.866Z,74.87
2018-12-14T22:10:48.192Z,74.57
2018-12-14T22:13:18.406Z,75.09
2018-12-14T22:15:49.167Z,74.50
2018-12-14T22:18:19.448Z,73.44
2018-12-14T22:20:49.704Z,74.06
2018-12-14T22:23:19.984Z,74.95
2018-12-14T22:25:50.200Z,74.50
2018-12-14T22:28:20.428Z,73.28
2018-12-14T22:30:50.677Z,72.98
2018-12-14T22:33:20.921Z,72.99
2018-12-14T22:35:51.115Z,73.30
2018-12-14T22:38:21.327Z,73.14
2018-12-14T22:40:51.508Z,74.02
2018-12-14T22:43:21.734Z,75.17
2018-12-14T22:45:52.572Z,75.31
2018-12-14T22:48:22.807Z,76.19
2018-12-14T22:50:53.181Z,76.50
2018-12-14T22:53:23.417Z,76.34
2018-12-14T22:55:53.679Z,75.97
2018-12-14T22:58:24.933Z,74.51
2018-12-14T23:00:55.472Z,75.75
2018-12-14T23:03:27.029Z,74.17
2018-12-14T23:05:57.468Z,74.76
2018-12-14T23:08:27.677Z,75.21
2018-12-14T23:10:58.573Z,75.72
2018-12-14T23:13:28.804Z,75.29
2018-12-14T23:15:59.276Z,75.72
2018-12-14T23:18:29.505Z,75.74
2018-12-14T23:21:01.128Z,74.58
2018-12-14T23:23:31.894Z,74.54
2018-12-14T23:26:03.316Z,74.77
2018-12-14T23:28:33.613Z,75.34
2018-12-14T23:31:03.861Z,75.40
2018-12-14T23:33:34.763Z,75.34
2018-12-14T23:36:04.933Z,76.08
2018-12-14T23:38:35.168Z,75.29
2018-12-14T23:41:05.550Z,75.59
2018-12-14T23:43:35.844Z,74.23
2018-12-14T23:46:06.044Z,75.45
2018-12-14T23:48:36.282Z,75.86
2018-12-14T23:51:06.527Z,75.13
2018-12-14T23:53:36.720Z,76.05
2018-12-14T23:56:06.902Z,76.86
2018-12-14T23:58:37.075Z,76.37
